Forest fire From: 18-06-2018 11:00 Until: 19-06-2018 10:14 warning for: Forest fire Level: Yellow info button
suomi:
Metsäpalovaroitus on voimassa.

svenska:
Varning för skogsbrand gäller.

english:
A forest fire warning is in force. 


Thunder radar more information blitzortung!


Löydät sääaseman tiedot myös:

European Weather Network

Finland Weather Exchange

Weather Underground

AWEKAS



Weather Underground säähistoriasivu

Päivittäin yhteenveto Lokakuu 6, 2017 Yksiköt:  Englantilaiset    Metriset   Molemmat
« Edellinen Päivä
Seuraava Päivä »
Päivittäin Viikoittain Kuukausittain Vuosittain Mukautettu
  Korkea: Matala: Keskiarvo:
Lämpötila: TemperatureC °F 4.2 °F 6.3 °F
Kastepiste: DewpointC °F 3.7 °F 5.9 °F
Kosteus: Humidity % 93 % 96 %
Tuulen nopeus: WindSpeedKMH mph 0.0 mph 0 mph
Tuulenpuuska: WindSpeedGustKMH mph - -
Tuuli:- - North
Ilmanpaine: PressurehPa in 988.0 in -
Sade: 0.0 in    
Historical Graphs
 
 
Taulukkotiedot Lokakuu 6, 2017
Aika Lämpötila Kastepiste Ilmanpaine Tuuli Tuulen nopeus Tuulenpuuska Kosteus Sademäärä (tunneittain)
TemperatureC °F DewpointC °F PressurehPa in Calm     Humidity % HourlyPrecipMM in
00:00 6.4 °F 5.9 °F 988.0 in Calm     97 % 0.0 in
00:15 6.3 °F 5.9 °F 988.0 in Calm     97 % 0.0 in
00:30 6.2 °F 5.7 °F 988.4 in Calm     97 % 0.0 in
00:45 5.9 °F 5.4 °F 988.4 in Calm     97 % 0.0 in
01:15 5.6 °F 5.1 °F 988.4 in Calm     97 % 0.0 in
01:30 5.4 °F 5.0 °F 988.7 in Calm     97 % 0.0 in
01:45 5.3 °F 4.8 °F 988.7 in Calm     97 % 0.0 in
02:00 5.2 °F 4.7 °F 989.1 in Calm     97 % 0.0 in
02:15 4.9 °F 4.5 °F 989.1 in Calm     97 % 0.0 in
02:30 5.0 °F 4.7 °F 989.4 in Calm     98 % 0.0 in
02:45 5.1 °F 4.8 °F 989.4 in Calm     98 % 0.0 in
03:00 5.0 °F 4.7 °F 989.4 in Calm     98 % 0.0 in
03:15 5.0 °F 4.7 °F 989.7 in Calm     98 % 0.0 in
03:30 5.1 °F 4.8 °F 989.7 in Calm     98 % 0.0 in
03:45 5.1 °F 4.8 °F 989.7 in Calm     98 % 0.0 in
04:00 5.0 °F 5.0 °F 990.1 in Calm     100 % 0.0 in
04:15 4.9 °F 4.7 °F 990.1 in Calm     98 % 0.0 in
04:30 4.9 °F 4.7 °F 990.1 in Calm     98 % 0.0 in
04:45 5.0 °F 5.0 °F 990.4 in Calm     100 % 0.0 in
05:00 5.1 °F 4.8 °F 990.4 in Calm     98 % 0.0 in
05:15 5.2 °F 4.9 °F 990.4 in Calm     98 % 0.0 in
05:30 5.2 °F 4.9 °F 990.4 in Calm     98 % 0.0 in
05:45 5.3 °F 5.0 °F 990.7 in Calm     98 % 0.0 in
06:00 5.2 °F 4.9 °F 990.7 in Calm     98 % 0.0 in
06:30 4.8 °F 4.5 °F 991.1 in Calm     98 % 0.0 in
06:45 4.7 °F 4.2 °F 991.1 in Calm     97 % 0.0 in
07:00 4.6 °F 4.3 °F 991.1 in Calm     98 % 0.0 in
07:15 4.6 °F 4.3 °F 991.4 in Calm     98 % 0.0 in
07:30 4.7 °F 4.4 °F 991.8 in Calm     98 % 0.0 in
07:45 4.9 °F 4.7 °F 991.8 in Calm     98 % 0.0 in
08:00 5.1 °F 4.8 °F 992.1 in Calm     98 % 0.0 in
08:15 5.2 °F 4.9 °F 992.1 in Calm     98 % 0.0 in
08:30 5.3 °F 5.0 °F 992.4 in Calm     98 % 0.0 in
08:45 5.4 °F 5.2 °F 992.8 in Calm     98 % 0.0 in
09:00 5.5 °F 5.2 °F 992.8 in Calm     98 % 0.0 in
09:15 5.6 °F 5.3 °F 992.8 in Calm     98 % 0.0 in
09:30 5.8 °F 5.5 °F 993.1 in Calm     98 % 0.0 in
09:45 5.9 °F 5.7 °F 993.1 in Calm     98 % 0.0 in
10:00 6.1 °F 5.8 °F 993.5 in Calm     98 % 0.0 in
10:15 6.1 °F 5.8 °F 993.5 in Calm     98 % 0.0 in
10:30 6.2 °F 5.9 °F 993.5 in Calm     98 % 0.0 in
10:45 6.4 °F 6.2 °F 993.8 in Calm     98 % 0.0 in
11:00 6.8 °F 6.5 °F 993.8 in Calm     98 % 0.0 in
11:30 7.2 °F 7.0 °F 994.1 in Calm     99 % 0.0 in
11:45 7.5 °F 7.4 °F 994.1 in Calm     99 % 0.0 in
12:00 7.7 °F 7.4 °F 994.5 in Calm     98 % 0.0 in
12:15 7.8 °F 7.6 °F 994.5 in Calm     99 % 0.0 in
12:30 7.8 °F 7.6 °F 994.8 in Calm     99 % 0.0 in
12:45 7.9 °F 7.6 °F 994.8 in Calm     98 % 0.0 in
13:00 8.1 °F 7.8 °F 994.8 in Calm     98 % 0.0 in
13:15 8.1 °F 7.8 °F 995.1 in Calm     98 % 0.0 in
13:30 8.4 °F 8.2 °F 995.1 in Calm     99 % 0.0 in
13:45 8.5 °F 8.2 °F 995.1 in Calm     98 % 0.0 in
14:00 8.6 °F 8.3 °F 995.1 in Calm     98 % 0.0 in
14:15 8.7 °F 8.2 °F 995.1 in Calm     97 % 0.0 in
14:30 8.8 °F 8.3 °F 995.1 in Calm     97 % 0.0 in
14:45 8.9 °F 8.3 °F 995.5 in Calm     96 % 0.0 in
15:00 9.0 °F 8.4 °F 995.5 in Calm     96 % 0.0 in
15:15 9.1 °F 8.5 °F 995.5 in Calm     96 % 0.0 in
15:30 8.9 °F 8.0 °F 995.8 in Calm     94 % 0.0 in
15:45 9.2 °F 8.4 °F 995.8 in Calm     95 % 0.0 in
16:00 9.2 °F 8.4 °F 995.8 in Calm     95 % 0.0 in
16:15 9.3 °F 8.5 °F 995.8 in Calm     95 % 0.0 in
16:30 9.2 °F 8.5 °F 995.8 in Calm     95 % 0.0 in
17:00 9.1 °F 8.3 °F 996.2 in Calm     95 % 0.0 in
17:15 8.9 °F 8.2 °F 996.2 in Calm     95 % 0.0 in
17:30 8.7 °F 7.8 °F 996.2 in Calm     94 % 0.0 in
17:45 8.3 °F 7.2 °F 996.5 in Calm     93 % 0.0 in
18:00 8.0 °F 6.9 °F 996.5 in Calm     93 % 0.0 in
18:15 7.7 °F 6.8 °F 996.5 in Calm     94 % 0.0 in
18:30 7.3 °F 6.4 °F 996.5 in Calm     94 % 0.0 in
19:00 6.7 °F 5.8 °F 996.8 in Calm     94 % 0.0 in
19:15 6.2 °F 5.4 °F 996.8 in Calm     95 % 0.0 in
19:30 6.0 °F 5.3 °F 996.8 in Calm     95 % 0.0 in
19:45 5.9 °F 5.3 °F 996.8 in Calm     96 % 0.0 in
20:00 5.7 °F 5.1 °F 996.8 in Calm     96 % 0.0 in
20:15 5.9 °F 5.5 °F 996.8 in Calm     97 % 0.0 in
20:30 6.2 °F 5.7 °F 996.8 in Calm     97 % 0.0 in
20:45 6.2 °F 5.8 °F 997.2 in Calm     97 % 0.0 in
21:00 6.3 °F 5.8 °F 997.2 in Calm     97 % 0.0 in
21:15 6.3 °F 5.8 °F 997.2 in Calm     97 % 0.0 in
21:30 6.3 °F 5.8 °F 997.2 in Calm     97 % 0.0 in
21:45 6.3 °F 5.9 °F 997.2 in Calm     97 % 0.0 in
22:15 6.1 °F 5.7 °F 997.2 in Calm     97 % 0.0 in
22:30 5.7 °F 5.1 °F 997.2 in Calm     96 % 0.0 in
22:45 5.3 °F 4.9 °F 997.2 in Calm     97 % 0.0 in
23:00 5.1 °F 4.7 °F 997.2 in Calm     97 % 0.0 in
23:15 4.6 °F 4.0 °F 997.2 in Calm     96 % 0.0 in
23:30 4.2 °F 3.8 °F 997.2 in Calm     97 % 0.0 in
23:45 4.2 °F 3.7 °F 997.2 in Calm     97 % 0.0 in
Esan sääasema
Terveisin Weather Underground - 2.75 mb

Alkuperäinen skripti  Jim McMurry - jmcmurry@mwt.net Sovitettu myös templatelle  Wim van der Kuil - Leuven-Template.eu

Laitteet joita käytämme:

Sääasema
Davis VP2

Sääasemaohjelma
Cumulus

Sääaseman tietokone
Asus EeePC

Palveluntarjoaja
Suncomet

Davis VP2

Cumulus

Asus EeePC

Suncomet